Time;durP1;ratioP1;P1;durP2;ratioP2;P2;SDS_P1;SDS_P2;PMS_P1;PMS_P2;Temp;Humidity;BMP_temperature;BMP_pressure;BME280_temperature;BME280_humidity;BME280_pressure;Samples;Min_cycle;Max_cycle;Signal;HPM_P1;HPM_P2
2022/04/18 05:03:13;;;;;;;7.40;4.00;;;3.90;93.10;;;;;;6192327;23;20075;-83
2022/04/18 05:05:40;;;;;;;6.85;3.85;;;4.00;93.20;;;;;;6175219;23;20032;-85
2022/04/18 05:08:16;;;;;;;5.72;3.92;;;4.10;93.20;;;;;;6152421;23;20020;-88
2022/04/18 05:10:42;;;;;;;4.95;3.78;;;4.10;93.20;;;;;;6174082;23;20012;-85
2022/04/18 05:17:04;;;;;;;9.13;4.15;;;4.30;93.30;;;;;;6226034;23;20051;-86
2022/04/18 05:19:37;;;;;;;6.57;3.95;;;4.30;93.00;;;;;;6178318;23;20009;-85
2022/04/18 05:22:23;;;;;;;6.93;3.72;;;4.50;92.60;;;;;;6205080;23;20135;-87
2022/04/18 05:24:51;;;;;;;5.53;3.80;;;4.60;92.40;;;;;;6201741;23;20008;-85
2022/04/18 05:27:26;;;;;;;6.18;3.72;;;4.60;92.00;;;;;;6179485;23;20014;-86
2022/04/18 05:29:52;;;;;;;5.55;3.85;;;4.70;91.70;;;;;;6176446;23;20067;-86
2022/04/18 05:32:19;;;;;;;6.18;3.75;;;4.80;91.50;;;;;;6174498;23;20004;-86
2022/04/18 05:35:00;;;;;;;6.43;3.58;;;4.90;91.40;;;;;;6139515;23;20005;-87
2022/04/18 05:37:27;;;;;;;6.15;4.10;;;5.00;91.10;;;;;;6114801;23;20215;-85
2022/04/18 05:40:03;;;;;;;7.40;4.13;;;5.10;90.80;;;;;;6115876;23;20013;-84
2022/04/18 05:42:33;;;;;;;8.27;4.22;;;5.20;90.90;;;;;;6114990;23;20031;-86
2022/04/18 05:56:33;;;;;;;7.68;3.97;;;5.50;90.10;;;;;;6088000;23;20044;-82
2022/04/18 05:59:09;;;;;;;6.13;3.88;;;5.70;89.90;;;;;;6200222;23;20012;-83
2022/04/18 06:01:41;;;;;;;7.35;4.40;;;5.80;89.40;;;;;;6215844;23;20139;-81
2022/04/18 06:04:24;;;;;;;8.82;4.10;;;5.90;89.70;;;;;;6147665;23;20015;-81
2022/04/18 06:07:09;;;;;;;8.55;4.40;;;6.00;88.90;;;;;;6194764;23;20020;-81
2022/04/18 06:09:34;;;;;;;6.88;4.00;;;6.20;88.80;;;;;;6143735;23;20033;-81
2022/04/18 06:12:04;;;;;;;9.18;4.43;;;6.20;88.00;;;;;;6143577;23;20013;-81
2022/04/18 06:14:38;;;;;;;7.93;4.43;;;6.40;88.00;;;;;;6164562;23;20004;-81
2022/04/18 06:17:06;;;;;;;8.57;4.32;;;6.40;87.60;;;;;;6142798;23;20063;-84
2022/04/18 06:19:33;;;;;;;7.05;4.60;;;6.50;86.60;;;;;;6143823;23;20195;-83
2022/04/18 06:22:26;;;;;;;7.07;4.45;;;6.50;86.30;;;;;;6143292;23;19993;-81
2022/04/18 06:24:54;;;;;;;9.77;4.80;;;6.60;86.60;;;;;;6142972;23;20016;-82
2022/04/18 06:27:26;;;;;;;6.38;4.38;;;6.70;85.60;;;;;;6169144;23;20009;-82
2022/04/18 06:29:52;;;;;;;8.25;4.18;;;6.80;84.80;;;;;;6142866;23;20013;-81
2022/04/18 06:32:21;;;;;;;10.18;4.45;;;7.00;84.10;;;;;;6143702;23;20019;-81
2022/04/18 06:35:03;;;;;;;7.85;3.83;;;7.10;84.00;;;;;;6144249;23;20036;-82
2022/04/18 06:37:34;;;;;;;7.30;3.95;;;7.30;83.40;;;;;;6142801;23;20005;-82
2022/04/18 06:40:29;;;;;;;6.75;4.05;;;7.40;82.70;;;;;;6173216;23;20009;-81
2022/04/18 06:43:16;;;;;;;5.53;3.72;;;7.50;81.20;;;;;;6176402;23;20326;-81
2022/04/18 06:51:37;;;;;;;6.25;3.80;;;7.90;78.10;;;;;;6169808;23;20023;-84
2022/04/18 06:54:03;;;;;;;7.18;3.67;;;8.10;77.90;;;;;;6224650;23;20012;-83
2022/04/18 06:57:02;;;;;;;;;;;8.10;77.00;;;;;;6194419;23;20004;-82
2022/04/18 06:59:51;;;;;;;6.70;3.45;;;8.30;76.80;;;;;;6197194;23;19907;-83
2022/04/18 07:02:24;;;;;;;6.63;4.18;;;8.40;76.30;;;;;;6172701;23;20035;-84
2022/04/18 07:04:56;;;;;;;6.40;3.58;;;8.60;75.50;;;;;;6197148;23;20171;-84
2022/04/18 07:07:24;;;;;;;6.70;3.75;;;8.70;75.30;;;;;;6173519;23;20009;-84
2022/04/18 07:09:50;;;;;;;7.45;3.67;;;8.80;74.50;;;;;;6196652;23;20055;-83
2022/04/18 07:12:24;;;;;;;5.15;3.00;;;8.90;73.70;;;;;;6222472;23;20016;-83
2022/04/18 07:14:54;;;;;;;6.30;3.53;;;9.10;73.00;;;;;;6196636;23;20005;-85
2022/04/18 07:20:55;;;;;;;6.05;2.90;;;9.30;72.30;;;;;;6222306;23;20024;-85
2022/04/18 07:23:30;;;;;;;5.10;3.10;;;9.50;71.80;;;;;;6167887;23;20012;-84
2022/04/18 07:26:04;;;;;;;6.25;3.53;;;9.60;71.40;;;;;;6167740;23;20009;-83
2022/04/18 07:28:39;;;;;;;4.68;3.22;;;9.70;70.80;;;;;;6168999;23;20009;-84
2022/04/18 07:31:14;;;;;;;5.13;3.30;;;9.80;70.70;;;;;;6150004;23;20025;-84
2022/04/18 07:33:49;;;;;;;7.30;3.80;;;9.80;70.40;;;;;;6207738;23;20310;-82
2022/04/18 07:36:19;;;;;;;6.53;3.75;;;10.00;70.20;;;;;;6191914;23;20043;-83
2022/04/18 07:38:49;;;;;;;6.72;3.60;;;10.00;69.80;;;;;;6166665;23;20012;-84
2022/04/18 07:41:17;;;;;;;6.68;3.28;;;10.10;69.80;;;;;;6191592;23;20303;-83
2022/04/18 07:43:45;;;;;;;6.03;3.67;;;10.20;69.40;;;;;;6166891;23;20177;-84
2022/04/18 07:46:16;;;;;;;5.93;3.40;;;10.40;68.90;;;;;;6165789;23;20013;-82
2022/04/18 07:48:45;;;;;;;7.47;3.72;;;10.50;68.90;;;;;;6166639;23;20055;-84
2022/04/18 07:53:56;;;;;;;7.75;5.28;;;10.70;67.50;;;;;;6187155;23;20069;-83
2022/04/18 07:56:23;;;;;;;8.70;5.28;;;10.80;67.60;;;;;;6166477;23;20055;-83
2022/04/18 07:58:50;;;;;;;7.38;4.30;;;10.90;67.10;;;;;;6166193;23;20024;-82
2022/04/18 08:01:24;;;;;;;6.20;3.50;;;11.00;67.00;;;;;;6167751;23;20009;-83
2022/04/18 08:03:51;;;;;;;5.65;3.28;;;11.20;66.30;;;;;;6191587;23;20005;-83
2022/04/18 08:06:17;;;;;;;6.28;3.70;;;11.30;66.50;;;;;;6167571;23;19993;-82
2022/04/18 08:08:51;;;;;;;7.93;3.58;;;11.40;66.50;;;;;;6169298;23;20252;-83
2022/04/18 08:11:17;;;;;;;7.68;3.80;;;11.40;65.50;;;;;;6167412;23;20071;-84
2022/04/18 08:13:47;;;;;;;8.88;3.33;;;11.40;65.40;;;;;;6192109;23;20002;-84
2022/04/18 08:16:32;;;;;;;4.75;3.25;;;11.40;64.90;;;;;;6192073;23;20084;-83
2022/04/18 08:19:07;;;;;;;7.10;3.28;;;11.70;65.30;;;;;;6170306;23;20183;-82
2022/04/18 08:21:33;;;;;;;5.95;3.30;;;11.80;65.20;;;;;;6171255;23;20076;-82
2022/04/18 08:24:00;;;;;;;4.75;3.10;;;11.80;64.30;;;;;;6171391;23;20009;-82
2022/04/18 08:26:38;;;;;;;5.60;2.92;;;11.90;64.60;;;;;;6193454;23;20020;-85
2022/04/18 08:29:14;;;;;;;6.60;2.90;;;12.10;64.60;;;;;;6170403;23;20004;-81
2022/04/18 08:32:09;;;;;;;4.57;2.80;;;12.20;63.60;;;;;;6170961;23;20017;-85
2022/04/18 08:34:38;;;;;;;5.57;2.72;;;12.30;63.80;;;;;;6167336;23;20103;-82
2022/04/18 08:37:05;;;;;;;6.10;3.00;;;12.40;64.20;;;;;;6166723;23;20072;-85
2022/04/18 08:39:51;;;;;;;5.32;2.95;;;12.40;63.70;;;;;;6176198;23;20013;-83
2022/04/18 08:42:24;;;;;;;;;;;12.60;63.20;;;;;;6194166;23;20283;-84
2022/04/18 08:54:13;;;;;;;4.82;2.85;;;12.70;61.70;;;;;;6191759;23;20024;-84
2022/04/18 08:56:43;;;;;;;5.68;2.97;;;12.70;62.10;;;;;;6192082;23;20001;-84
2022/04/18 08:59:25;;;;;;;4.53;2.70;;;12.70;61.80;;;;;;6166859;23;20005;-84
2022/04/18 09:01:52;;;;;;;6.63;3.00;;;12.70;61.50;;;;;;6190735;23;20013;-85
2022/04/18 09:04:39;;;;;;;5.82;3.33;;;12.70;61.70;;;;;;6192793;23;20013;-87
2022/04/18 09:07:13;;;;;;;4.82;2.63;;;12.70;61.30;;;;;;6166400;23;20016;-85
2022/04/18 09:09:44;;;;;;;5.28;2.75;;;12.80;61.50;;;;;;6169099;23;20199;-85
2022/04/18 09:12:27;;;;;;;6.43;3.25;;;12.90;61.40;;;;;;6192176;23;20060;-79
2022/04/18 09:15:43;;;;;;;5.53;3.00;;;13.10;60.60;;;;;;6189756;23;20239;-80
2022/04/18 09:18:17;;;;;;;5.35;3.00;;;13.00;61.70;;;;;;6169939;23;20016;-83
2022/04/18 09:21:05;;;;;;;7.15;3.30;;;13.10;60.30;;;;;;6193537;23;20013;-84
2022/04/18 09:23:36;;;;;;;5.82;3.00;;;13.20;61.10;;;;;;6169340;23;20302;-86
2022/04/18 09:26:21;;;;;;;5.95;3.08;;;13.40;60.40;;;;;;6175584;23;20338;-81
2022/04/18 09:28:47;;;;;;;5.18;2.90;;;13.50;59.90;;;;;;6193895;23;20056;-82
2022/04/18 09:31:19;;;;;;;4.47;2.63;;;13.60;60.20;;;;;;6167678;23;20360;-82
2022/04/18 09:33:56;;;;;;;5.07;2.47;;;13.80;59.80;;;;;;6168548;23;20072;-83
2022/04/18 09:36:24;;;;;;;5.72;2.75;;;13.90;59.00;;;;;;6193224;23;20072;-80
2022/04/18 09:38:54;;;;;;;4.45;2.65;;;14.00;60.00;;;;;;6192709;23;20032;-80
2022/04/18 09:41:40;;;;;;;4.97;2.40;;;14.00;59.40;;;;;;6189875;23;20060;-82
2022/04/18 09:44:33;;;;;;;4.40;2.20;;;14.10;58.50;;;;;;6193036;23;20005;-82
2022/04/18 09:47:00;;;;;;;4.78;2.55;;;14.40;57.50;;;;;;6167842;23;20020;-82
2022/04/18 09:49:38;;;;;;;7.35;2.58;;;14.50;56.50;;;;;;6193892;23;20009;-83
2022/04/18 09:52:23;;;;;;;4.90;2.13;;;14.60;56.30;;;;;;6193010;23;20059;-82
2022/04/18 09:54:58;;;;;;;5.35;2.72;;;14.80;56.10;;;;;;6169063;23;20609;-83
2022/04/18 09:57:29;;;;;;;5.78;2.40;;;15.00;56.50;;;;;;6193384;23;20306;-81
2022/04/18 10:00:13;;;;;;;4.15;2.47;;;15.20;55.90;;;;;;6194298;23;20005;-82
2022/04/18 10:02:42;;;;;;;5.93;2.47;;;15.20;55.40;;;;;;6194921;23;20020;-82
2022/04/18 10:05:08;;;;;;;7.07;2.72;;;15.40;55.90;;;;;;6168765;23;19993;-82
2022/04/18 10:07:37;;;;;;;4.50;2.30;;;15.50;55.50;;;;;;6169562;23;20320;-81
2022/04/18 10:10:04;;;;;;;4.10;2.30;;;15.40;55.40;;;;;;6192747;23;20049;-79
2022/04/18 10:12:30;;;;;;;4.35;2.45;;;15.40;55.10;;;;;;6194256;23;20073;-84
2022/04/18 10:14:55;;;;;;;4.50;2.75;;;15.30;55.80;;;;;;6193686;23;20005;-82
2022/04/18 10:17:25;;;;;;;4.28;2.15;;;15.30;55.50;;;;;;6168283;23;20130;-81
2022/04/18 10:20:09;;;;;;;4.07;2.28;;;15.40;55.80;;;;;;6194915;23;20060;-81
2022/04/18 10:22:40;;;;;;;6.13;2.72;;;15.50;55.30;;;;;;6168969;23;20072;-82
2022/04/18 10:25:33;;;;;;;6.25;3.10;;;15.50;55.40;;;;;;6193631;23;20011;-81
2022/04/18 10:28:04;;;;;;;5.68;2.30;;;15.50;55.20;;;;;;6169107;23;20028;-81
2022/04/18 10:30:35;;;;;;;10.73;5.78;;;15.50;55.00;;;;;;6194508;23;20035;-82
2022/04/18 10:33:02;;;;;;;8.10;4.93;;;15.50;54.70;;;;;;6193830;23;20008;-83
2022/04/18 10:35:29;;;;;;;3.85;2.30;;;15.60;54.70;;;;;;6194167;23;20251;-81
2022/04/18 10:37:56;;;;;;;4.35;2.63;;;15.80;55.00;;;;;;6169307;23;19997;-82
2022/04/18 10:40:23;;;;;;;4.95;2.75;;;15.90;54.80;;;;;;6193094;23;20028;-81
2022/04/18 10:42:49;;;;;;;3.97;2.40;;;15.90;54.70;;;;;;6194651;23;20064;-80
2022/04/18 10:45:19;;;;;;;3.90;2.33;;;15.90;54.60;;;;;;6191590;23;20144;-83
2022/04/18 10:48:00;;;;;;;3.75;2.40;;;16.00;54.90;;;;;;6194945;23;20280;-82
2022/04/18 10:50:27;;;;;;;5.82;2.33;;;16.10;54.70;;;;;;6196506;23;20023;-78
2022/04/18 10:53:17;;;;;;;4.18;2.50;;;16.30;54.30;;;;;;6200517;23;20008;-81
2022/04/18 10:55:52;;;;;;;5.45;2.33;;;16.50;53.00;;;;;;6197359;23;20005;-78
2022/04/18 10:58:22;;;;;;;4.20;2.33;;;16.50;53.10;;;;;;6195273;23;20005;-82
2022/04/18 11:00:59;;;;;;;6.28;2.25;;;16.60;53.00;;;;;;6203587;23;20020;-82
2022/04/18 11:03:50;;;;;;;3.88;2.35;;;16.70;53.40;;;;;;6199949;23;20009;-82
2022/04/18 11:06:16;;;;;;;4.22;2.13;;;16.80;52.80;;;;;;6195130;23;20013;-79
2022/04/18 11:08:56;;;;;;;5.20;2.58;;;16.70;52.10;;;;;;6194251;23;20084;-80
2022/04/18 11:11:22;;;;;;;3.30;2.05;;;16.80;53.00;;;;;;6193562;23;20324;-82
2022/04/18 11:13:49;;;;;;;4.40;2.47;;;17.20;52.90;;;;;;6192805;23;20056;-82
2022/04/18 11:16:44;;;;;;;4.75;2.25;;;17.60;52.10;;;;;;6193315;23;20013;-78
2022/04/18 11:19:14;;;;;;;5.18;2.17;;;18.60;50.60;;;;;;6207394;23;20069;-82
2022/04/18 11:21:58;;;;;;;3.65;1.90;;;19.30;49.50;;;;;;6194729;23;20009;-80
2022/04/18 11:24:54;;;;;;;4.32;2.30;;;20.10;48.30;;;;;;6192729;23;20213;-81
2022/04/18 11:27:26;;;;;;;4.50;2.38;;;21.10;47.60;;;;;;6193792;23;20305;-79
2022/04/18 11:30:00;;;;;;;3.85;2.20;;;21.60;47.20;;;;;;6193501;23;20012;-81
2022/04/18 11:32:29;;;;;;;3.97;2.05;;;22.70;46.20;;;;;;6191406;23;20211;-80
2022/04/18 11:34:58;;;;;;;5.05;2.35;;;23.80;44.70;;;;;;6192544;23;20008;-81
2022/04/18 11:37:34;;;;;;;4.40;1.92;;;24.90;43.40;;;;;;6167332;23;20005;-80
2022/04/18 11:40:05;;;;;;;3.38;1.95;;;25.20;42.60;;;;;;6191537;23;20047;-82
2022/04/18 11:42:33;;;;;;;3.08;1.85;;;25.50;42.30;;;;;;6193312;23;20332;-81
2022/04/18 11:45:09;;;;;;;3.55;2.20;;;26.50;41.80;;;;;;6191685;23;20020;-84
2022/04/18 11:47:38;;;;;;;3.28;2.10;;;27.00;41.20;;;;;;6192918;23;20027;-81
2022/04/18 11:50:05;;;;;;;3.30;2.00;;;27.40;40.70;;;;;;6192682;23;20009;-79
2022/04/18 11:52:41;;;;;;;3.50;2.00;;;28.00;39.70;;;;;;6192237;23;20017;-82
2022/04/18 11:55:18;;;;;;;3.35;1.80;;;28.90;39.50;;;;;;6191695;23;20016;-84
2022/04/18 11:57:46;;;;;;;4.47;1.90;;;28.70;39.20;;;;;;6194166;23;20028;-82
2022/04/18 12:00:14;;;;;;;4.45;1.70;;;29.10;39.00;;;;;;6190953;23;20060;-81
2022/04/18 12:08:18;;;;;;;3.88;1.98;;;30.70;37.70;;;;;;6192144;23;19900;-80
2022/04/18 12:10:45;;;;;;;3.42;1.95;;;30.60;38.00;;;;;;6167480;23;20019;-82
2022/04/18 12:13:13;;;;;;;3.72;1.67;;;30.80;37.80;;;;;;6194538;23;20012;-82
2022/04/18 12:15:40;;;;;;;3.30;1.95;;;30.40;37.50;;;;;;6193321;23;20318;-82
2022/04/18 12:18:37;;;;;;;3.63;1.83;;;30.80;37.30;;;;;;6192126;23;20012;-81
2022/04/18 12:21:03;;;;;;;4.55;1.83;;;31.60;37.60;;;;;;6166899;23;20207;-85
2022/04/18 12:23:30;;;;;;;4.45;1.85;;;32.00;37.10;;;;;;6192815;23;20005;-83
2022/04/18 12:25:58;;;;;;;2.90;1.70;;;32.90;36.70;;;;;;6192368;23;20291;-81
2022/04/18 12:28:28;;;;;;;3.10;1.60;;;32.90;36.80;;;;;;6191396;23;20042;-81
2022/04/18 12:30:54;;;;;;;2.55;1.70;;;32.50;36.50;;;;;;6192612;23;20127;-82
2022/04/18 12:33:25;;;;;;;3.78;1.83;;;32.30;36.40;;;;;;6192524;23;20199;-82
2022/04/18 12:35:56;;;;;;;4.82;1.90;;;32.30;37.10;;;;;;6195937;23;20005;-83
2022/04/18 12:38:36;;;;;;;3.92;1.52;;;32.50;36.10;;;;;;6193233;23;20275;-84
2022/04/18 12:41:03;;;;;;;2.95;1.50;;;33.40;36.40;;;;;;6191324;23;20001;-84
2022/04/18 12:43:34;;;;;;;2.65;1.50;;;34.00;35.80;;;;;;6192047;23;20009;-83
2022/04/18 12:46:01;;;;;;;2.67;1.50;;;33.60;36.30;;;;;;6167196;23;20013;-82
2022/04/18 12:48:32;;;;;;;2.83;1.60;;;33.20;35.10;;;;;;6166724;23;20056;-83
2022/04/18 12:51:02;;;;;;;3.00;1.48;;;33.90;35.40;;;;;;6194122;23;20009;-81
2022/04/18 12:53:56;;;;;;;2.88;1.42;;;34.80;35.70;;;;;;6195755;23;20043;-80
2022/04/18 12:56:24;;;;;;;3.28;1.45;;;35.10;35.10;;;;;;6193478;23;20109;-80
2022/04/18 12:59:10;;;;;;;2.53;1.50;;;35.10;34.90;;;;;;6195495;23;20029;-81
2022/04/18 13:01:39;;;;;;;3.00;1.60;;;35.10;34.90;;;;;;6194313;23;20045;-83
2022/04/18 13:04:21;;;;;;;2.42;1.38;;;35.60;34.70;;;;;;6193179;23;20329;-82
2022/04/18 13:07:06;;;;;;;3.47;1.90;;;36.60;34.30;;;;;;6194335;23;20012;-82
2022/04/18 13:09:32;;;;;;;2.78;1.52;;;36.80;34.10;;;;;;6194233;23;20016;-83
2022/04/18 13:12:11;;;;;;;2.50;1.42;;;36.70;34.50;;;;;;6193960;23;20000;-82
2022/04/18 13:15:05;;;;;;;24.80;13.57;;;36.70;33.70;;;;;;6194381;23;20001;-83
2022/04/18 13:17:54;;;;;;;3.17;1.85;;;37.60;33.70;;;;;;6195732;23;20025;-83
2022/04/18 13:20:20;;;;;;;4.78;2.60;;;37.30;34.40;;;;;;6194439;23;20005;-82
2022/04/18 13:22:46;;;;;;;6.80;3.90;;;37.00;33.50;;;;;;6194116;23;20282;-82
2022/04/18 13:25:12;;;;;;;5.05;2.90;;;36.60;34.30;;;;;;6192900;23;20009;-82
2022/04/18 13:27:39;;;;;;;3.78;2.03;;;37.30;34.80;;;;;;6168497;23;20028;-83
2022/04/18 13:30:06;;;;;;;4.85;2.60;;;36.70;34.00;;;;;;6192793;23;20009;-85
2022/04/18 13:32:32;;;;;;;2.90;1.93;;;37.10;33.60;;;;;;6169158;23;20234;-82
2022/04/18 13:34:57;;;;;;;3.65;1.30;;;37.80;33.30;;;;;;6193828;23;20274;-82
2022/04/18 13:37:23;;;;;;;3.10;1.50;;;37.80;33.60;;;;;;6193403;23;19997;-84
2022/04/18 13:39:49;;;;;;;4.25;1.98;;;38.50;33.10;;;;;;6193651;23;20001;-82
2022/04/18 13:42:16;;;;;;;2.53;1.17;;;39.10;33.70;;;;;;6193624;23;20025;-81
2022/04/18 13:44:42;;;;;;;5.28;1.60;;;38.80;32.80;;;;;;6193911;23;19989;-83
2022/04/18 13:47:08;;;;;;;2.90;1.70;;;38.90;33.10;;;;;;6192330;23;20116;-81
2022/04/18 13:49:36;;;;;;;2.80;1.63;;;38.30;33.00;;;;;;6195383;23;20001;-80
2022/04/18 13:52:03;;;;;;;3.30;1.48;;;38.50;33.50;;;;;;6193343;23;20013;-81
2022/04/18 13:54:29;;;;;;;2.70;1.40;;;39.00;32.70;;;;;;6193223;23;20009;-82
2022/04/18 13:56:59;;;;;;;3.67;1.50;;;39.00;33.00;;;;;;6168836;23;20009;-81
2022/04/18 13:59:25;;;;;;;2.92;1.33;;;38.70;32.60;;;;;;6194877;23;20160;-83
2022/04/18 14:01:51;;;;;;;3.45;1.40;;;39.10;32.30;;;;;;6192693;23;20214;-81
2022/04/18 14:04:21;;;;;;;1.92;1.13;;;39.30;32.90;;;;;;6195059;23;20005;-81
2022/04/18 14:06:47;;;;;;;3.42;1.48;;;39.30;32.20;;;;;;6193664;23;20005;-83
2022/04/18 14:09:13;;;;;;;2.35;1.20;;;38.60;32.20;;;;;;6193805;23;20031;-83
2022/04/18 14:11:42;;;;;;;1.80;1.02;;;38.80;32.90;;;;;;6194890;23;20039;-82
2022/04/18 14:14:08;;;;;;;3.47;1.20;;;38.80;32.60;;;;;;6192926;23;20019;-84
2022/04/18 14:22:05;;;;;;;1.67;1.10;;;38.80;33.60;;;;;;6195290;23;20053;-80
2022/04/18 14:24:32;;;;;;;2.20;1.02;;;39.10;32.20;;;;;;6193498;23;19989;-82
2022/04/18 14:26:59;;;;;;;2.20;1.23;;;39.80;32.60;;;;;;6195285;23;20163;-81
2022/04/18 14:29:24;;;;;;;1.90;1.20;;;39.80;32.70;;;;;;6193783;23;20020;-80
2022/04/18 14:31:51;;;;;;;2.67;1.20;;;39.90;33.30;;;;;;6168563;23;20009;-80
2022/04/18 14:34:19;;;;;;;3.40;1.40;;;40.30;32.00;;;;;;6194541;23;20004;-81
2022/04/18 14:36:46;;;;;;;2.10;1.10;;;40.60;32.10;;;;;;6193740;23;19997;-84
2022/04/18 14:39:11;;;;;;;1.70;0.90;;;41.40;33.20;;;;;;6194309;23;20028;-81
2022/04/18 14:41:37;;;;;;;1.75;1.00;;;42.00;31.60;;;;;;6193254;23;20001;-80
2022/04/18 14:44:03;;;;;;;2.75;1.20;;;40.10;31.50;;;;;;6194620;23;20106;-82
2022/04/18 14:46:30;;;;;;;1.98;0.98;;;39.80;32.50;;;;;;6192025;23;20192;-82
2022/04/18 14:48:55;;;;;;;1.90;0.98;;;40.50;31.80;;;;;;6192980;23;20001;-81
2022/04/18 14:51:24;;;;;;;2.42;1.30;;;39.80;31.50;;;;;;6191959;23;20114;-81
2022/04/18 14:53:52;;;;;;;2.65;1.35;;;39.90;31.60;;;;;;6193238;23;20008;-79
2022/04/18 14:56:18;;;;;;;2.53;1.40;;;39.50;32.30;;;;;;6194067;23;20001;-79
2022/04/18 14:58:44;;;;;;;1.80;1.00;;;39.90;31.70;;;;;;6192917;23;20027;-81
2022/04/18 15:01:12;;;;;;;2.63;1.00;;;39.90;31.70;;;;;;6192427;23;20032;-81
2022/04/18 15:03:38;;;;;;;2.85;1.20;;;40.30;33.40;;;;;;6195177;23;20012;-80
2022/04/18 15:06:04;;;;;;;2.25;1.10;;;41.20;31.70;;;;;;6205261;23;20005;-78
2022/04/18 15:08:30;;;;;;;2.63;1.00;;;40.20;31.40;;;;;;6205636;23;19993;-83
2022/04/18 15:10:55;;;;;;;2.13;1.02;;;39.80;32.00;;;;;;6211808;23;20077;-82
2022/04/18 15:13:21;;;;;;;2.33;1.30;;;39.20;32.60;;;;;;6211320;23;20008;-82
2022/04/18 15:15:47;;;;;;;2.45;1.58;;;38.70;32.50;;;;;;6209226;23;20061;-81
2022/04/18 15:18:13;;;;;;;2.17;1.20;;;39.30;32.50;;;;;;6194625;23;20047;-80
2022/04/18 15:20:39;;;;;;;1.70;0.90;;;38.90;32.10;;;;;;6195135;23;20234;-84
2022/04/18 15:23:05;;;;;;;3.30;1.70;;;39.30;32.70;;;;;;6192651;23;20064;-79
2022/04/18 15:25:30;;;;;;;2.10;1.20;;;39.80;32.30;;;;;;6194346;23;20005;-79
2022/04/18 15:27:56;;;;;;;2.05;1.10;;;40.20;32.40;;;;;;6194373;23;20016;-79
2022/04/18 15:33:06;;;;;;;1.80;1.13;;;38.50;31.80;;;;;;6193299;23;20168;-81
2022/04/18 15:35:33;;;;;;;3.70;1.45;;;38.50;32.10;;;;;;6192362;23;20043;-80
2022/04/18 15:37:59;;;;;;;2.13;1.20;;;39.20;32.50;;;;;;6193050;23;20004;-79
2022/04/18 15:40:24;;;;;;;2.33;1.00;;;39.10;33.00;;;;;;6167764;23;20068;-81
2022/04/18 15:42:50;;;;;;;2.00;1.13;;;39.40;32.20;;;;;;6193695;23;20073;-82
2022/04/18 15:45:16;;;;;;;3.38;1.10;;;39.60;31.90;;;;;;6192769;23;20162;-81
2022/04/18 15:47:43;;;;;;;2.13;0.98;;;40.00;32.00;;;;;;6194011;23;19997;-81
2022/04/18 15:50:10;;;;;;;2.28;1.20;;;39.50;31.80;;;;;;6193879;23;20008;-83
2022/04/18 15:52:35;;;;;;;2.03;1.00;;;38.60;32.20;;;;;;6193910;23;20016;-80
2022/04/18 15:55:02;;;;;;;1.70;0.93;;;38.40;32.30;;;;;;6167674;23;20004;-83
2022/04/18 15:57:28;;;;;;;2.10;1.15;;;37.40;32.30;;;;;;6191786;23;20191;-81
2022/04/18 15:59:53;;;;;;;3.53;1.08;;;36.90;32.50;;;;;;6193121;23;20060;-81
2022/04/18 16:02:19;;;;;;;1.98;1.00;;;35.90;32.50;;;;;;6196218;23;20005;-81
2022/04/18 16:04:45;;;;;;;2.47;1.48;;;36.40;33.00;;;;;;6193125;23;20024;-82
2022/04/18 16:07:11;;;;;;;2.53;1.40;;;36.70;33.20;;;;;;6194300;23;20285;-82
2022/04/18 16:09:37;;;;;;;3.75;1.30;;;37.20;32.90;;;;;;6167314;23;20151;-85
2022/04/18 16:12:04;;;;;;;2.97;1.20;;;36.70;33.50;;;;;;6193905;23;20040;-80
2022/04/18 16:14:30;;;;;;;2.85;1.30;;;36.50;33.00;;;;;;6193039;23;20005;-82
2022/04/18 16:17:02;;;;;;;1.90;1.13;;;37.00;33.10;;;;;;6191454;23;20112;-80
2022/04/18 16:19:28;;;;;;;2.65;1.30;;;37.10;32.60;;;;;;6191382;23;20043;-81
2022/04/18 16:21:55;;;;;;;2.45;1.13;;;37.90;32.90;;;;;;6192450;23;20005;-85
2022/04/18 16:24:21;;;;;;;2.03;1.00;;;38.00;32.90;;;;;;6191437;23;20009;-82
2022/04/18 16:26:47;;;;;;;3.05;0.77;;;38.40;32.30;;;;;;6193652;23;20012;-85
2022/04/18 16:32:02;;;;;;;;;;;36.90;32.50;;;;;;6192204;23;20248;-83
2022/04/18 16:34:28;;;;;;;3.45;1.60;;;36.60;33.30;;;;;;6191920;23;19907;-81
2022/04/18 16:36:55;;;;;;;2.80;1.30;;;36.40;34.30;;;;;;6195249;23;20247;-81
2022/04/18 16:39:20;;;;;;;2.53;1.30;;;36.70;33.20;;;;;;6194900;23;20338;-81
2022/04/18 16:47:15;;;;;;;2.15;1.10;;;35.40;34.60;;;;;;6193129;23;20020;-82
2022/04/18 16:49:42;;;;;;;2.38;1.10;;;35.60;34.10;;;;;;6192773;23;20009;-82
2022/04/18 16:52:08;;;;;;;2.10;1.00;;;35.80;33.60;;;;;;6194441;23;20016;-81
2022/04/18 16:54:36;;;;;;;1.73;0.95;;;35.90;33.20;;;;;;6191874;23;20308;-81
2022/04/18 16:57:03;;;;;;;2.70;0.93;;;36.00;33.70;;;;;;6192161;23;20112;-83
2022/04/18 16:59:28;;;;;;;1.83;0.82;;;35.30;34.50;;;;;;6167210;23;20009;-82
2022/04/18 17:01:54;;;;;;;2.78;0.98;;;35.90;33.80;;;;;;6193098;23;20009;-82
2022/04/18 17:04:20;;;;;;;1.65;0.85;;;35.30;33.40;;;;;;6193168;23;20001;-82
2022/04/18 17:06:46;;;;;;;1.92;1.10;;;35.30;33.60;;;;;;6193204;23;20081;-82
2022/04/18 17:09:12;;;;;;;2.30;1.17;;;33.70;34.00;;;;;;6193224;23;20005;-82
2022/04/18 17:11:38;;;;;;;2.00;0.90;;;32.20;34.90;;;;;;6193026;23;20055;-81
2022/04/18 17:14:04;;;;;;;2.42;1.25;;;30.30;35.80;;;;;;6193572;23;20051;-79
2022/04/18 17:16:30;;;;;;;1.88;0.82;;;28.20;37.10;;;;;;6191326;23;20056;-80
2022/04/18 17:18:56;;;;;;;1.98;0.93;;;26.50;39.50;;;;;;6191760;23;20235;-82
2022/04/18 17:21:23;;;;;;;2.03;1.10;;;25.30;39.80;;;;;;6192759;23;20008;-80
2022/04/18 17:23:48;;;;;;;3.72;1.30;;;24.30;40.60;;;;;;6192244;23;19989;-79
2022/04/18 17:26:14;;;;;;;2.10;1.02;;;23.70;42.20;;;;;;6191507;23;20020;-80
2022/04/18 17:28:40;;;;;;;3.13;1.05;;;23.20;42.60;;;;;;6192573;23;20008;-79
2022/04/18 17:31:06;;;;;;;3.08;1.25;;;22.70;43.70;;;;;;6192180;23;20032;-80
2022/04/18 17:33:32;;;;;;;3.88;1.35;;;22.30;43.00;;;;;;6166682;23;20187;-80
2022/04/18 17:35:59;;;;;;;2.53;1.20;;;21.80;43.50;;;;;;6191977;23;20020;-80
2022/04/18 17:38:26;;;;;;;2.65;1.20;;;21.50;44.40;;;;;;6192774;23;19997;-83
2022/04/18 17:40:52;;;;;;;2.58;1.10;;;21.20;44.20;;;;;;6193096;23;20047;-81
2022/04/18 17:43:19;;;;;;;2.80;1.00;;;20.70;45.40;;;;;;6194582;23;20302;-83
2022/04/18 17:45:45;;;;;;;2.33;0.90;;;20.40;45.60;;;;;;6192676;23;20207;-81
2022/04/18 17:48:11;;;;;;;2.30;0.90;;;20.00;46.40;;;;;;6192872;23;19997;-83
2022/04/18 17:50:37;;;;;;;3.10;1.00;;;19.90;47.70;;;;;;6193605;23;20016;-83
2022/04/18 17:55:48;;;;;;;2.70;1.20;;;19.70;47.00;;;;;;6194728;23;20055;-81
2022/04/18 17:55:49;;;;;;;3.53;1.20;;;19.30;47.10;;;;;;6192943;23;20005;-83
2022/04/18 17:58:15;;;;;;;2.90;1.40;;;19.10;47.80;;;;;;6194555;23;20000;-82
2022/04/18 18:00:40;;;;;;;4.32;2.05;;;18.90;49.40;;;;;;6193710;23;20021;-82
2022/04/18 18:03:06;;;;;;;3.65;1.58;;;18.80;49.60;;;;;;6193427;23;20060;-81
2022/04/18 18:05:32;;;;;;;4.50;1.35;;;18.80;50.20;;;;;;6192689;23;20060;-83
2022/04/18 18:07:58;;;;;;;3.92;1.80;;;18.60;49.50;;;;;;6194512;23;20025;-82
2022/04/18 18:10:23;;;;;;;3.78;1.58;;;18.50;50.30;;;;;;6192189;23;20009;-83
2022/04/18 18:12:50;;;;;;;3.08;1.20;;;18.30;50.10;;;;;;6192923;23;20005;-82
2022/04/18 18:15:16;;;;;;;4.07;1.42;;;18.00;50.30;;;;;;6191993;23;20016;-81
2022/04/18 18:17:42;;;;;;;5.90;2.00;;;17.80;50.30;;;;;;6192235;23;20234;-82
2022/04/18 18:20:10;;;;;;;4.13;1.85;;;17.60;51.50;;;;;;6193411;23;20000;-80
2022/04/18 18:22:36;;;;;;;4.75;2.53;;;17.50;51.60;;;;;;6192444;23;20039;-81
2022/04/18 18:25:07;;;;;;;5.57;2.53;;;17.30;51.60;;;;;;6194538;23;20060;-83
2022/04/18 18:27:33;;;;;;;4.82;2.35;;;17.10;52.60;;;;;;6197208;23;20004;-80
2022/04/18 18:29:59;;;;;;;6.18;2.40;;;17.00;52.90;;;;;;6195971;23;20318;-80
2022/04/18 18:32:25;;;;;;;5.78;2.45;;;16.90;53.00;;;;;;6166731;23;20307;-83
2022/04/18 18:34:51;;;;;;;8.15;3.33;;;16.70;53.30;;;;;;6168468;23;20025;-84
2022/04/18 18:37:17;;;;;;;9.43;3.75;;;16.70;53.70;;;;;;6168455;23;20197;-83
2022/04/18 18:39:44;;;;;;;9.75;4.38;;;16.50;54.20;;;;;;6193720;23;20005;-83
2022/04/18 18:42:11;;;;;;;7.55;3.00;;;16.30;54.50;;;;;;6168532;23;20016;-81
2022/04/18 18:44:37;;;;;;;6.25;2.97;;;16.10;55.20;;;;;;6192183;23;20069;-81
2022/04/18 18:47:03;;;;;;;6.13;2.92;;;16.10;55.70;;;;;;6166399;23;20183;-80
2022/04/18 18:49:29;;;;;;;4.97;2.30;;;15.90;55.70;;;;;;6193103;23;20016;-82
2022/04/18 18:54:39;;;;;;;3.70;1.88;;;15.80;56.20;;;;;;6192337;23;20011;-80
2022/04/18 18:57:04;;;;;;;4.13;2.20;;;15.70;56.70;;;;;;6192297;23;20001;-80
2022/04/18 18:59:30;;;;;;;3.20;1.20;;;15.70;56.60;;;;;;6192387;23;20180;-80
2022/04/18 19:01:56;;;;;;;7.43;1.88;;;15.70;56.50;;;;;;6191552;23;20017;-83
2022/04/18 19:04:22;;;;;;;4.97;1.67;;;15.60;56.90;;;;;;6192804;23;20073;-82
2022/04/18 19:06:48;;;;;;;4.60;1.75;;;15.50;57.20;;;;;;6192115;23;19985;-83
2022/04/18 19:09:13;;;;;;;4.93;1.52;;;15.40;57.20;;;;;;6168024;23;20009;-82